Time;durP1;ratioP1;P1;durP2;ratioP2;P2;SDS_P1;SDS_P2;PMS_P1;PMS_P2;Temp;Humidity;BMP_temperature;BMP_pressure;BME280_temperature;BME280_humidity;BME280_pressure;Samples;Min_cycle;Max_cycle;Signal;HPM_P1;HPM_P2
2023/09/19 00:02:08;;;;;;;1.20;0.50;;;20.90;74.90;;;;;;2309561;53;21131;-68
2023/09/19 00:04:39;;;;;;;1.02;0.40;;;20.90;74.90;;;;;;2538114;53;20985;-69
2023/09/19 00:07:08;;;;;;;3.85;0.60;;;20.90;74.80;;;;;;2511608;53;21588;-69
2023/09/19 00:09:40;;;;;;;1.08;0.40;;;20.90;75.00;;;;;;2503721;53;21382;-68
2023/09/19 00:12:09;;;;;;;1.35;0.40;;;20.90;74.90;;;;;;2515821;52;21653;-68
2023/09/19 00:14:38;;;;;;;2.15;0.95;;;20.90;75.10;;;;;;2534663;53;21451;-70
2023/09/19 00:17:09;;;;;;;2.50;0.60;;;20.90;75.10;;;;;;2308325;53;21011;-70
2023/09/19 00:19:42;;;;;;;2.70;0.47;;;20.90;75.20;;;;;;2568660;52;20936;-69
2023/09/19 00:22:09;;;;;;;1.15;0.40;;;20.90;75.10;;;;;;2579295;52;20944;-70
2023/09/19 00:24:43;;;;;;;2.05;0.50;;;20.90;75.30;;;;;;2332351;53;22138;-70
2023/09/19 00:27:09;;;;;;;1.37;0.50;;;20.90;75.30;;;;;;2328732;53;20979;-69
2023/09/19 00:29:41;;;;;;;1.52;0.40;;;20.90;75.30;;;;;;2331359;53;21491;-69
2023/09/19 00:32:09;;;;;;;1.50;0.60;;;20.90;75.20;;;;;;2323783;53;21421;-69
2023/09/19 00:34:43;;;;;;;2.15;0.77;;;20.90;75.30;;;;;;2323971;53;20928;-69
2023/09/19 00:37:11;;;;;;;1.25;0.50;;;20.90;75.10;;;;;;2574166;52;20959;-70
2023/09/19 00:39:40;;;;;;;1.27;0.50;;;20.90;75.40;;;;;;2579547;52;21461;-69
2023/09/19 00:42:23;;;;;;;1.20;0.50;;;20.90;75.30;;;;;;2330382;53;21082;-68
2023/09/19 00:45:14;;;;;;;3.40;0.70;;;20.90;75.10;;;;;;2328057;53;21399;-69
2023/09/19 00:47:41;;;;;;;1.40;0.50;;;20.90;74.80;;;;;;2576611;52;20971;-71
2023/09/19 00:50:10;;;;;;;2.05;0.60;;;20.90;75.50;;;;;;2575640;52;21480;-69
2023/09/19 00:52:39;;;;;;;0.95;0.40;;;20.90;75.50;;;;;;2335914;53;21384;-68
2023/09/19 00:55:08;;;;;;;2.17;0.70;;;20.90;75.40;;;;;;2331722;53;21628;-68
2023/09/19 00:57:34;;;;;;;1.45;0.40;;;20.90;75.50;;;;;;2582787;52;20960;-70
2023/09/19 01:00:08;;;;;;;1.20;0.50;;;20.90;75.60;;;;;;2331922;53;20963;-69
2023/09/19 01:02:37;;;;;;;1.52;0.60;;;20.90;75.60;;;;;;2592069;52;21047;-70
2023/09/19 01:05:04;;;;;;;2.60;0.70;;;20.90;75.60;;;;;;2591389;52;20927;-70
2023/09/19 01:07:33;;;;;;;2.33;0.65;;;20.90;75.60;;;;;;2580227;52;21423;-70
2023/09/19 01:10:05;;;;;;;1.42;0.52;;;20.90;75.60;;;;;;2570078;52;21807;-70
2023/09/19 01:13:08;;;;;;;1.10;0.55;;;20.90;75.60;;;;;;2326795;53;21821;-70
2023/09/19 01:15:52;;;;;;;3.67;0.60;;;20.90;75.20;;;;;;2562069;52;21442;-70
2023/09/19 01:19:08;;;;;;;1.90;0.60;;;20.90;75.20;;;;;;2559959;52;23061;-69
2023/09/19 01:21:50;;;;;;;2.72;0.95;;;20.90;74.90;;;;;;2312243;53;20940;-70
2023/09/19 01:27:43;;;;;;;1.92;0.60;;;20.90;75.30;;;;;;2559085;52;22211;-68
2023/09/19 01:30:14;;;;;;;1.77;0.60;;;20.90;74.60;;;;;;2538263;52;22005;-70
2023/09/19 01:32:46;;;;;;;1.40;0.62;;;20.90;75.40;;;;;;2545820;52;20999;-70
2023/09/19 01:35:24;;;;;;;1.30;0.50;;;20.90;75.50;;;;;;2299508;54;21000;-68
2023/09/19 01:37:50;;;;;;;1.10;0.60;;;20.90;75.50;;;;;;2316352;53;21668;-69
2023/09/19 01:40:18;;;;;;;1.73;0.80;;;20.90;75.90;;;;;;2597396;52;20964;-70
2023/09/19 01:43:00;;;;;;;2.00;0.70;;;20.90;75.90;;;;;;2621394;52;21501;-69
2023/09/19 01:45:56;;;;;;;2.10;0.85;;;20.90;75.60;;;;;;2368860;54;21762;-70
2023/09/19 01:48:42;;;;;;;2.05;0.80;;;20.90;75.60;;;;;;2621454;52;20960;-70
2023/09/19 01:51:11;;;;;;;2.47;0.70;;;20.90;75.50;;;;;;2367533;53;20916;-70
2023/09/19 01:54:11;;;;;;;2.90;0.80;;;20.90;75.90;;;;;;2621369;52;20930;-70
2023/09/19 01:57:03;;;;;;;2.58;0.77;;;20.90;75.20;;;;;;2368921;53;20920;-70
2023/09/19 01:59:41;;;;;;;1.52;0.60;;;20.90;76.00;;;;;;2369001;53;20929;-69
2023/09/19 02:02:08;;;;;;;1.25;0.52;;;21.00;75.90;;;;;;2620878;52;20945;-70
2023/09/19 02:04:35;;;;;;;2.08;0.68;;;20.90;76.10;;;;;;2620208;52;21839;-70
2023/09/19 02:07:02;;;;;;;1.77;0.75;;;20.90;76.10;;;;;;2620834;52;20988;-71
2023/09/19 02:09:29;;;;;;;6.32;1.80;;;21.00;76.30;;;;;;2368539;53;20944;-70
2023/09/19 02:11:56;;;;;;;1.48;0.50;;;21.00;76.30;;;;;;2616579;52;20928;-68
2023/09/19 02:14:22;;;;;;;1.27;0.60;;;20.90;76.10;;;;;;2348234;53;21642;-69
2023/09/19 02:16:52;;;;;;;2.70;0.57;;;20.90;76.10;;;;;;2348055;53;21113;-69
2023/09/19 02:19:20;;;;;;;1.23;0.50;;;21.00;76.00;;;;;;2613294;52;20945;-69
2023/09/19 02:21:48;;;;;;;2.28;0.70;;;21.00;76.20;;;;;;2612335;52;20920;-70
2023/09/19 02:24:17;;;;;;;1.75;0.60;;;20.90;76.20;;;;;;2610939;52;21000;-70
2023/09/19 02:26:44;;;;;;;2.40;0.60;;;20.90;76.10;;;;;;2610744;52;20960;-69
2023/09/19 02:29:12;;;;;;;1.45;0.60;;;21.00;76.10;;;;;;2345408;53;20968;-67
2023/09/19 02:31:39;;;;;;;2.30;0.70;;;21.00;76.00;;;;;;2616265;52;20964;-68
2023/09/19 02:34:06;;;;;;;1.65;0.57;;;20.90;75.90;;;;;;2621691;52;21526;-68
2023/09/19 02:36:33;;;;;;;2.03;0.62;;;21.00;75.90;;;;;;2341524;53;20968;-68
2023/09/19 02:38:59;;;;;;;2.33;0.70;;;21.00;75.90;;;;;;2587259;52;20948;-69
2023/09/19 02:41:25;;;;;;;3.35;0.88;;;21.00;75.90;;;;;;2341430;53;21566;-70
2023/09/19 02:43:53;;;;;;;2.03;0.70;;;21.00;75.90;;;;;;2587256;52;21364;-69
2023/09/19 02:46:20;;;;;;;1.58;0.62;;;21.00;75.80;;;;;;2586687;53;21320;-69
2023/09/19 02:48:47;;;;;;;2.47;0.65;;;21.00;75.90;;;;;;2587491;53;20917;-71
2023/09/19 02:51:13;;;;;;;2.60;0.57;;;21.00;75.80;;;;;;2616541;52;21433;-69
2023/09/19 02:53:40;;;;;;;2.53;0.60;;;20.90;75.70;;;;;;2368693;54;20929;-69
2023/09/19 02:56:07;;;;;;;1.65;0.60;;;20.90;75.70;;;;;;2621836;52;20928;-69
2023/09/19 02:58:35;;;;;;;2.30;0.65;;;20.90;75.70;;;;;;2341331;54;21000;-71
2023/09/19 03:01:14;;;;;;;1.25;0.47;;;20.90;75.60;;;;;;2341660;54;21481;-68
2023/09/19 03:03:44;;;;;;;3.85;0.60;;;20.90;75.30;;;;;;2579313;52;20944;-69
2023/09/19 03:06:12;;;;;;;1.80;0.60;;;20.90;75.60;;;;;;2577974;52;20921;-70
2023/09/19 03:08:39;;;;;;;1.75;0.68;;;20.90;75.60;;;;;;2577859;53;20920;-69
2023/09/19 03:11:09;;;;;;;1.90;0.55;;;20.90;75.60;;;;;;2317654;54;21677;-68
2023/09/19 03:13:38;;;;;;;1.52;0.57;;;20.90;75.50;;;;;;2600753;52;20926;-68
2023/09/19 03:16:08;;;;;;;1.77;0.60;;;20.90;75.60;;;;;;2321530;53;20988;-69
2023/09/19 03:18:37;;;;;;;2.17;0.50;;;20.90;75.60;;;;;;2587092;52;21056;-68
2023/09/19 03:21:04;;;;;;;1.80;0.50;;;20.90;76.40;;;;;;2348918;54;21014;-71
2023/09/19 03:23:30;;;;;;;1.25;0.50;;;20.90;75.70;;;;;;2341566;54;21044;-70
2023/09/19 03:26:04;;;;;;;1.33;0.45;;;20.90;75.70;;;;;;2568028;52;21531;-69
2023/09/19 03:28:34;;;;;;;1.42;0.50;;;20.90;75.40;;;;;;2332730;54;21756;-70
2023/09/19 03:31:09;;;;;;;2.00;0.50;;;20.90;75.70;;;;;;2315683;54;20983;-68
2023/09/19 03:33:35;;;;;;;1.70;0.50;;;20.90;75.70;;;;;;2333623;54;21128;-69
2023/09/19 03:36:04;;;;;;;1.55;0.52;;;20.90;75.80;;;;;;2338290;54;20942;-69
2023/09/19 03:38:34;;;;;;;2.05;0.40;;;20.90;75.80;;;;;;2333325;54;21898;-69
2023/09/19 03:41:01;;;;;;;1.75;0.50;;;20.90;75.80;;;;;;2589238;52;21547;-70
2023/09/19 03:43:32;;;;;;;1.45;0.50;;;20.90;75.90;;;;;;2585280;52;21025;-69
2023/09/19 03:46:03;;;;;;;1.12;0.40;;;20.90;75.80;;;;;;2321422;53;20941;-69
2023/09/19 03:48:30;;;;;;;2.62;0.60;;;20.90;75.90;;;;;;2562781;52;20983;-71
2023/09/19 03:50:58;;;;;;;1.70;0.65;;;20.90;75.90;;;;;;2320076;54;21729;-69
2023/09/19 03:53:25;;;;;;;1.12;0.50;;;20.90;75.90;;;;;;2343860;54;20986;-68
2023/09/19 03:55:54;;;;;;;1.40;0.43;;;20.90;75.90;;;;;;2320449;54;20999;-70
2023/09/19 03:58:20;;;;;;;1.30;0.40;;;20.90;75.90;;;;;;2327648;54;20974;-70
2023/09/19 04:00:54;;;;;;;2.35;0.60;;;20.90;76.00;;;;;;2342638;54;22141;-68
2023/09/19 04:03:21;;;;;;;1.12;0.40;;;20.90;75.80;;;;;;2335315;54;20958;-70
2023/09/19 04:05:48;;;;;;;3.25;0.70;;;20.90;75.90;;;;;;2341993;54;21962;-68
2023/09/19 04:08:15;;;;;;;2.60;0.55;;;20.90;75.90;;;;;;2586904;52;20963;-69
2023/09/19 04:10:44;;;;;;;1.17;0.50;;;20.90;75.90;;;;;;2589118;52;20994;-70
2023/09/19 04:13:13;;;;;;;1.42;0.43;;;20.90;75.90;;;;;;2337172;54;20968;-70
2023/09/19 04:15:40;;;;;;;1.40;0.52;;;20.90;75.90;;;;;;2317907;54;20926;-69
2023/09/19 04:18:08;;;;;;;3.47;0.60;;;20.90;75.80;;;;;;2589456;52;21018;-68
2023/09/19 04:20:38;;;;;;;1.40;0.60;;;20.90;75.70;;;;;;2341025;54;21487;-69
2023/09/19 04:23:08;;;;;;;1.42;0.50;;;20.90;75.60;;;;;;2337011;54;20925;-70
2023/09/19 04:25:34;;;;;;;1.65;0.50;;;20.90;75.60;;;;;;2309814;53;20939;-69
2023/09/19 04:28:01;;;;;;;1.37;0.45;;;20.90;75.70;;;;;;2312651;53;20982;-69
2023/09/19 04:30:28;;;;;;;1.27;0.40;;;20.90;75.80;;;;;;2298912;54;21924;-69
2023/09/19 04:32:54;;;;;;;1.08;0.40;;;20.90;75.80;;;;;;2328551;53;20941;-71
2023/09/19 04:35:23;;;;;;;1.87;0.40;;;20.90;75.80;;;;;;2548416;52;21474;-70
2023/09/19 04:37:50;;;;;;;2.72;0.60;;;20.90;75.80;;;;;;2302590;54;20951;-71
2023/09/19 04:40:20;;;;;;;2.58;0.68;;;20.90;75.90;;;;;;2560882;52;21926;-69
2023/09/19 04:42:56;;;;;;;3.17;0.80;;;20.90;75.80;;;;;;2309439;53;21079;-69
2023/09/19 04:45:24;;;;;;;2.10;0.50;;;20.90;75.70;;;;;;2561921;52;20925;-71
2023/09/19 04:47:51;;;;;;;1.70;0.70;;;20.90;76.00;;;;;;2549930;52;20941;-69
2023/09/19 04:50:18;;;;;;;2.00;0.65;;;20.90;76.10;;;;;;2552406;52;21800;-69
2023/09/19 04:52:44;;;;;;;2.80;0.65;;;20.90;76.10;;;;;;2561611;52;20936;-70
2023/09/19 04:55:16;;;;;;;1.50;0.50;;;20.90;76.10;;;;;;2548132;52;20917;-70
2023/09/19 04:57:48;;;;;;;1.40;0.50;;;20.90;76.10;;;;;;2340686;53;20958;-70
2023/09/19 05:00:16;;;;;;;1.80;0.52;;;21.00;76.00;;;;;;2334041;53;20927;-69
2023/09/19 05:02:44;;;;;;;1.87;0.60;;;20.90;76.00;;;;;;2574166;52;21839;-69
2023/09/19 05:05:11;;;;;;;1.15;0.45;;;20.90;76.00;;;;;;2331646;53;21061;-70
2023/09/19 05:07:40;;;;;;;3.58;0.47;;;20.90;75.90;;;;;;2332041;53;20907;-68
2023/09/19 05:10:11;;;;;;;1.05;0.50;;;20.90;75.90;;;;;;2583767;52;21027;-70
2023/09/19 05:12:38;;;;;;;0.98;0.50;;;20.90;75.60;;;;;;2582275;52;22076;-68
2023/09/19 05:15:06;;;;;;;1.52;0.50;;;20.90;75.80;;;;;;2583298;52;20954;-70
2023/09/19 05:17:34;;;;;;;2.08;0.60;;;21.00;75.90;;;;;;2334678;53;21450;-70
2023/09/19 05:20:14;;;;;;;1.58;0.52;;;20.90;75.80;;;;;;2574201;52;20973;-71
2023/09/19 05:22:46;;;;;;;1.12;0.40;;;20.90;75.80;;;;;;2323499;53;20950;-69
2023/09/19 05:25:20;;;;;;;0.88;0.40;;;20.90;75.60;;;;;;2570167;53;21754;-71
2023/09/19 05:27:51;;;;;;;1.57;0.50;;;20.90;75.60;;;;;;2326197;53;21463;-69
2023/09/19 05:30:20;;;;;;;1.90;0.52;;;20.90;75.60;;;;;;2578406;52;20938;-69
2023/09/19 05:32:51;;;;;;;2.03;0.40;;;20.90;75.70;;;;;;2580095;52;22144;-70
2023/09/19 05:35:18;;;;;;;1.25;0.50;;;20.90;75.70;;;;;;2589114;52;22134;-69
2023/09/19 05:37:45;;;;;;;1.98;0.52;;;20.90;75.70;;;;;;2575131;52;21490;-69
2023/09/19 05:40:12;;;;;;;3.85;1.00;;;20.90;75.80;;;;;;2529233;53;20925;-70
2023/09/19 05:42:41;;;;;;;1.73;0.60;;;20.90;75.80;;;;;;2577284;52;22151;-69
2023/09/19 05:45:12;;;;;;;2.17;0.73;;;20.90;75.80;;;;;;2333089;53;21733;-69
2023/09/19 05:47:44;;;;;;;1.55;0.60;;;20.90;75.70;;;;;;2579310;52;21792;-68
2023/09/19 05:50:10;;;;;;;1.73;0.52;;;20.90;75.70;;;;;;2567384;52;20965;-69
2023/09/19 05:52:40;;;;;;;1.80;0.57;;;20.90;75.80;;;;;;2572791;52;21537;-69
2023/09/19 05:55:08;;;;;;;2.08;0.60;;;20.90;75.60;;;;;;2333190;53;21897;-69
2023/09/19 05:57:35;;;;;;;1.85;0.52;;;20.90;75.70;;;;;;2329076;54;21038;-70
2023/09/19 06:00:17;;;;;;;3.10;0.80;;;20.90;75.90;;;;;;2534522;53;21030;-71
2023/09/19 06:02:45;;;;;;;1.10;0.50;;;20.90;75.90;;;;;;2589596;52;20943;-71
2023/09/19 06:05:21;;;;;;;1.42;0.50;;;20.90;76.00;;;;;;2306877;54;20937;-71
2023/09/19 06:07:50;;;;;;;1.12;0.60;;;20.90;76.00;;;;;;2558974;52;21634;-69
2023/09/19 06:10:23;;;;;;;2.03;0.70;;;20.90;76.00;;;;;;2332431;53;21764;-69
2023/09/19 06:12:50;;;;;;;1.62;0.65;;;20.90;75.90;;;;;;2555682;52;21524;-69
2023/09/19 06:15:22;;;;;;;1.58;0.60;;;20.90;76.10;;;;;;2293814;54;22121;-69
2023/09/19 06:17:51;;;;;;;1.23;0.55;;;20.90;76.10;;;;;;2556402;52;21767;-70
2023/09/19 06:20:23;;;;;;;1.40;0.60;;;20.90;76.10;;;;;;2321692;53;21808;-69
2023/09/19 06:22:51;;;;;;;2.78;0.70;;;21.00;76.00;;;;;;2320727;53;20999;-68
2023/09/19 06:25:20;;;;;;;1.30;0.50;;;20.90;76.10;;;;;;2290302;53;20960;-69
2023/09/19 06:27:56;;;;;;;2.10;0.70;;;20.90;76.00;;;;;;2296181;54;21562;-68
2023/09/19 06:30:30;;;;;;;2.40;0.60;;;20.90;75.80;;;;;;2574411;52;21720;-70
2023/09/19 06:32:59;;;;;;;1.95;0.60;;;21.00;76.10;;;;;;2519711;52;21593;-70
2023/09/19 06:35:26;;;;;;;2.80;0.70;;;21.00;76.00;;;;;;2589400;52;20939;-70
2023/09/19 06:37:57;;;;;;;1.98;0.70;;;21.00;76.10;;;;;;2330814;53;20964;-71
2023/09/19 06:40:25;;;;;;;2.15;0.60;;;21.00;76.10;;;;;;2333302;53;21530;-69
2023/09/19 06:42:52;;;;;;;1.48;0.60;;;21.00;76.10;;;;;;2585911;52;20938;-72
2023/09/19 06:45:26;;;;;;;1.10;0.50;;;21.00;76.00;;;;;;2582779;52;22159;-68
2023/09/19 06:47:57;;;;;;;1.37;0.52;;;21.00;75.80;;;;;;2340079;53;21044;-69
2023/09/19 06:50:35;;;;;;;1.77;0.62;;;21.00;76.10;;;;;;2552662;52;21366;-69
2023/09/19 06:53:15;;;;;;;1.33;0.50;;;21.00;75.70;;;;;;2305311;53;20931;-70
2023/09/19 06:55:54;;;;;;;1.70;0.60;;;21.00;76.20;;;;;;2515710;52;21485;-70
2023/09/19 06:58:25;;;;;;;2.80;0.70;;;21.10;76.10;;;;;;2516011;52;21457;-70
2023/09/19 07:00:56;;;;;;;1.87;0.70;;;21.10;76.80;;;;;;2283183;53;22035;-73
2023/09/19 07:03:33;;;;;;;1.20;0.52;;;21.10;76.10;;;;;;2517624;52;21543;-71
2023/09/19 07:06:04;;;;;;;2.65;0.70;;;21.10;76.20;;;;;;2288663;53;20946;-71
2023/09/19 07:08:33;;;;;;;2.03;0.70;;;21.10;76.10;;;;;;2523757;52;21724;-71
2023/09/19 07:11:05;;;;;;;2.40;0.57;;;21.10;76.00;;;;;;2510525;52;21651;-72
2023/09/19 07:13:33;;;;;;;3.22;0.70;;;21.10;76.00;;;;;;2276744;53;21426;-72
2023/09/19 07:16:19;;;;;;;2.28;0.60;;;21.20;76.10;;;;;;2285169;53;21907;-71
2023/09/19 07:18:55;;;;;;;2.90;0.85;;;21.20;75.80;;;;;;2492938;52;21648;-70
2023/09/19 07:21:21;;;;;;;1.95;0.70;;;21.20;76.00;;;;;;2292344;54;20937;-70
2023/09/19 07:23:53;;;;;;;2.45;0.62;;;21.10;76.20;;;;;;2315697;53;22179;-71
2023/09/19 07:26:21;;;;;;;1.65;0.60;;;21.20;76.10;;;;;;2584984;52;22037;-71
2023/09/19 07:28:53;;;;;;;1.87;0.70;;;21.20;76.40;;;;;;2335401;53;21485;-71
2023/09/19 07:31:22;;;;;;;1.67;0.70;;;21.20;76.40;;;;;;2333228;53;21763;-70
2023/09/19 07:33:53;;;;;;;2.58;0.70;;;21.30;76.60;;;;;;2591712;52;22098;-70
2023/09/19 07:36:20;;;;;;;2.80;0.80;;;21.30;76.70;;;;;;2340855;53;21148;-70
2023/09/19 07:38:48;;;;;;;1.80;0.60;;;21.30;76.70;;;;;;2597273;52;20978;-71
2023/09/19 07:41:15;;;;;;;2.47;0.62;;;21.30;76.80;;;;;;2343237;53;20994;-71
2023/09/19 07:43:43;;;;;;;1.80;0.68;;;21.30;76.70;;;;;;2597807;52;20994;-70
2023/09/19 07:46:11;;;;;;;1.27;0.60;;;21.40;76.70;;;;;;2598006;52;22656;-70
2023/09/19 07:48:40;;;;;;;2.15;0.70;;;21.40;76.70;;;;;;2351552;53;21026;-71
2023/09/19 07:51:09;;;;;;;1.67;0.80;;;21.40;76.80;;;;;;2351253;53;21002;-71
2023/09/19 07:53:36;;;;;;;2.15;0.82;;;21.50;77.00;;;;;;2353415;53;21821;-72
2023/09/19 07:56:06;;;;;;;1.20;0.52;;;21.50;77.00;;;;;;2591971;52;20994;-71
2023/09/19 07:58:36;;;;;;;1.05;0.50;;;21.50;77.00;;;;;;2342563;53;20938;-75
2023/09/19 08:01:06;;;;;;;2.30;0.50;;;21.50;77.00;;;;;;2585084;52;21009;-73
2023/09/19 08:03:34;;;;;;;2.45;0.60;;;21.60;76.90;;;;;;2586203;52;21861;-72
2023/09/19 08:06:03;;;;;;;1.90;0.90;;;21.60;77.10;;;;;;2592175;52;21442;-71
2023/09/19 08:08:31;;;;;;;1.42;0.55;;;21.70;77.30;;;;;;2341366;53;22183;-70
2023/09/19 08:11:01;;;;;;;2.25;0.80;;;21.70;77.20;;;;;;2596912;52;20930;-73
2023/09/19 08:13:31;;;;;;;1.27;0.60;;;21.80;77.10;;;;;;2339791;54;20957;-72
2023/09/19 08:15:59;;;;;;;2.70;0.80;;;21.80;77.00;;;;;;2599579;52;20954;-71
2023/09/19 08:18:26;;;;;;;1.80;0.60;;;21.80;76.90;;;;;;2351616;53;20974;-71
2023/09/19 08:20:53;;;;;;;1.37;0.62;;;21.80;76.80;;;;;;2351358;53;20938;-73
2023/09/19 08:23:21;;;;;;;3.25;0.75;;;21.90;76.80;;;;;;2354519;53;21232;-74
2023/09/19 08:25:48;;;;;;;2.75;0.90;;;21.90;76.80;;;;;;2609377;52;21038;-74
2023/09/19 08:28:18;;;;;;;2.72;0.90;;;22.00;76.70;;;;;;2607500;52;21616;-73
2023/09/19 08:30:51;;;;;;;3.15;1.25;;;21.90;76.50;;;;;;2598438;52;20985;-73
2023/09/19 08:33:20;;;;;;;1.75;0.70;;;22.00;76.10;;;;;;2600951;52;21028;-73
2023/09/19 08:35:47;;;;;;;2.28;0.80;;;22.00;76.60;;;;;;2358032;53;21052;-73
2023/09/19 08:38:14;;;;;;;1.42;0.50;;;22.10;76.70;;;;;;2565592;53;20969;-73
2023/09/19 08:40:42;;;;;;;3.25;0.70;;;22.10;76.70;;;;;;2362692;53;21454;-72
2023/09/19 08:43:14;;;;;;;2.08;0.68;;;22.20;76.80;;;;;;2607772;52;20929;-74
2023/09/19 08:45:41;;;;;;;1.87;0.70;;;22.20;76.80;;;;;;2360345;53;21025;-74
2023/09/19 08:48:23;;;;;;;1.50;0.60;;;22.20;76.80;;;;;;2614088;52;20902;-72
2023/09/19 08:51:10;;;;;;;3.30;0.90;;;22.30;76.30;;;;;;2365273;53;20968;-75
2023/09/19 08:54:39;;;;;;;1.48;0.70;;;22.30;75.50;;;;;;2338794;54;21021;-74
2023/09/19 08:57:11;;;;;;;1.60;0.60;;;22.30;75.10;;;;;;2613319;52;20934;-71
2023/09/19 08:59:41;;;;;;;3.20;0.80;;;22.40;76.30;;;;;;2371102;53;20961;-71
2023/09/19 09:02:14;;;;;;;2.05;0.70;;;22.40;75.90;;;;;;2371032;53;20966;-71
2023/09/19 09:04:41;;;;;;;1.50;0.60;;;22.40;75.70;;;;;;2371166;53;21041;-71
2023/09/19 09:07:14;;;;;;;3.20;0.68;;;22.40;76.20;;;;;;2622470;52;20934;-70
2023/09/19 09:09:43;;;;;;;1.90;0.80;;;22.50;75.50;;;;;;2373031;53;20942;-71
2023/09/19 09:12:13;;;;;;;2.50;0.90;;;22.50;76.10;;;;;;2614309;52;21392;-73
2023/09/19 09:14:41;;;;;;;2.78;1.00;;;22.50;75.70;;;;;;2612064;52;20949;-72
2023/09/19 09:17:07;;;;;;;4.97;0.95;;;22.50;75.90;;;;;;2343744;53;21561;-69
2023/09/19 09:19:33;;;;;;;2.72;0.80;;;22.60;76.00;;;;;;2620831;52;21012;-72
2023/09/19 09:22:09;;;;;;;2.75;0.85;;;22.60;76.20;;;;;;2616836;52;20969;-71
2023/09/19 09:24:38;;;;;;;2.08;0.70;;;22.70;75.70;;;;;;2369513;53;20953;-71
2023/09/19 09:27:05;;;;;;;2.10;0.98;;;22.70;75.90;;;;;;2623508;52;21439;-71
2023/09/19 09:29:47;;;;;;;1.92;0.90;;;22.70;75.70;;;;;;2370645;53;20902;-69
2023/09/19 09:32:36;;;;;;;1.35;0.60;;;22.80;75.10;;;;;;2621902;52;21462;-71
2023/09/19 09:35:09;;;;;;;3.20;0.93;;;22.80;74.70;;;;;;2364272;54;20980;-71
2023/09/19 09:37:38;;;;;;;1.30;0.55;;;22.80;75.70;;;;;;2623238;52;20969;-72
2023/09/19 09:45:48;;;;;;;2.37;0.90;;;22.90;75.30;;;;;;2623894;52;20890;-72
2023/09/19 09:48:15;;;;;;;3.53;1.37;;;23.00;73.10;;;;;;2623070;52;21803;-70
2023/09/19 09:50:55;;;;;;;3.97;1.80;;;23.10;75.00;;;;;;2623185;52;20957;-71
2023/09/19 09:53:33;;;;;;;3.30;1.45;;;23.10;74.20;;;;;;2623388;52;21404;-72
2023/09/19 09:56:12;;;;;;;2.75;1.20;;;23.10;74.20;;;;;;2622795;52;21005;-71
2023/09/19 09:58:52;;;;;;;2.35;1.05;;;23.10;73.70;;;;;;2372965;53;21812;-72
2023/09/19 10:01:20;;;;;;;1.52;0.62;;;23.20;74.60;;;;;;2340411;53;20987;-72
2023/09/19 10:03:51;;;;;;;1.95;0.80;;;23.20;74.80;;;;;;2371085;53;20958;-72
2023/09/19 10:06:27;;;;;;;2.58;0.80;;;23.20;74.70;;;;;;2622738;52;20993;-72
2023/09/19 10:09:11;;;;;;;1.75;0.62;;;23.20;74.30;;;;;;2370598;53;20938;-71
2023/09/19 10:11:43;;;;;;;1.95;0.73;;;23.30;72.60;;;;;;2623071;52;20902;-70
2023/09/19 10:14:15;;;;;;;2.00;0.80;;;23.30;73.50;;;;;;2623514;52;20969;-71
2023/09/19 10:16:48;;;;;;;2.30;0.90;;;23.30;73.80;;;;;;2623873;52;21444;-71
2023/09/19 10:19:30;;;;;;;1.77;0.80;;;23.40;72.80;;;;;;2622775;52;20994;-71
2023/09/19 10:21:57;;;;;;;;;;;23.40;72.40;;;;;;2627372;52;20971;-71
2023/09/19 10:24:26;;;;;;;2.70;0.70;;;23.40;72.60;;;;;;2618372;52;20070;-72
2023/09/19 10:26:52;;;;;;;2.22;0.70;;;23.50;74.20;;;;;;2617106;52;20895;-71
2023/09/19 10:29:21;;;;;;;1.45;0.60;;;23.50;74.10;;;;;;2370520;53;20934;-72
2023/09/19 10:31:47;;;;;;;1.90;0.70;;;23.50;74.20;;;;;;2622840;52;21045;-72
2023/09/19 10:34:14;;;;;;;3.53;0.70;;;23.50;74.20;;;;;;2371115;53;20890;-73
2023/09/19 10:36:46;;;;;;;2.22;0.90;;;23.60;74.30;;;;;;2623498;52;20991;-72
2023/09/19 10:39:14;;;;;;;2.42;0.82;;;23.60;74.00;;;;;;2623457;52;20890;-72
2023/09/19 10:41:40;;;;;;;1.75;0.80;;;23.60;73.90;;;;;;2623526;52;20938;-71
2023/09/19 10:44:07;;;;;;;2.03;0.80;;;23.60;73.30;;;;;;2623145;52;21014;-73
2023/09/19 10:46:33;;;;;;;2.00;0.90;;;23.70;73.30;;;;;;2369613;53;21292;-72
2023/09/19 10:49:00;;;;;;;2.10;0.85;;;23.70;73.20;;;;;;2370929;53;20914;-72
2023/09/19 10:51:31;;;;;;;2.25;0.90;;;23.70;73.10;;;;;;2613864;52;20941;-71
2023/09/19 10:54:03;;;;;;;2.53;1.00;;;23.80;72.60;;;;;;2623848;52;20958;-71
2023/09/19 10:56:37;;;;;;;3.10;1.20;;;23.80;72.40;;;;;;2624000;52;20989;-72
2023/09/19 10:59:12;;;;;;;2.55;0.90;;;23.80;72.10;;;;;;2623120;52;21046;-71
2023/09/19 11:01:56;;;;;;;1.30;0.70;;;23.80;71.50;;;;;;2370400;53;20994;-71
2023/09/19 11:04:36;;;;;;;2.67;0.80;;;23.90;71.70;;;;;;2612514;52;20915;-71
2023/09/19 11:07:12;;;;;;;3.05;1.00;;;23.90;71.00;;;;;;2622697;52;21731;-71
2023/09/19 11:09:55;;;;;;;2.03;0.80;;;23.90;72.30;;;;;;2623031;52;20914;-72
2023/09/19 11:13:30;;;;;;;1.98;0.80;;;23.90;70.60;;;;;;2622858;52;20954;-72
2023/09/19 11:16:06;;;;;;;1.77;0.70;;;24.10;70.90;;;;;;2589892;52;20929;-72
2023/09/19 11:19:54;;;;;;;1.92;0.70;;;24.10;71.50;;;;;;2588721;52;20929;-70
2023/09/19 11:22:22;;;;;;;1.40;0.57;;;24.20;70.00;;;;;;2589035;52;21336;-70
2023/09/19 11:24:51;;;;;;;4.03;0.70;;;24.20;72.40;;;;;;2348537;53;21004;-71
2023/09/19 11:27:20;;;;;;;2.95;0.65;;;24.20;72.10;;;;;;2371085;53;21416;-71
2023/09/19 11:29:49;;;;;;;1.37;0.60;;;24.20;72.10;;;;;;2623504;52;21002;-71
2023/09/19 11:32:16;;;;;;;2.60;1.12;;;24.30;72.10;;;;;;2371091;53;20926;-69
2023/09/19 11:34:45;;;;;;;2.03;0.60;;;24.30;72.00;;;;;;2371162;53;20981;-70
2023/09/19 11:40:21;;;;;;;1.75;0.68;;;24.40;71.90;;;;;;2369911;53;21521;-71
2023/09/19 11:42:55;;;;;;;1.48;0.60;;;24.50;70.00;;;;;;2622801;52;21006;-71
2023/09/19 11:52:10;;;;;;;1.35;0.60;;;24.60;72.10;;;;;;2621278;52;20950;-68
2023/09/19 11:54:40;;;;;;;1.65;0.60;;;24.80;71.40;;;;;;2370021;53;20934;-68
2023/09/19 11:57:07;;;;;;;1.70;0.43;;;24.80;72.40;;;;;;2622502;52;20974;-70
2023/09/19 11:59:36;;;;;;;2.85;0.65;;;24.80;71.80;;;;;;2370737;53;20939;-71
2023/09/19 12:02:04;;;;;;;2.30;0.57;;;24.80;71.50;;;;;;2371010;53;21002;-69
2023/09/19 12:04:49;;;;;;;1.25;0.60;;;24.90;71.40;;;;;;2622498;52;20962;-71
2023/09/19 12:07:15;;;;;;;;;;;24.90;70.40;;;;;;2374499;53;21802;-69
2023/09/19 12:10:02;;;;;;;2.20;0.77;;;25.00;69.40;;;;;;2622510;52;20354;-70
2023/09/19 12:12:28;;;;;;;2.03;0.80;;;25.00;69.40;;;;;;2595309;52;20933;-69
2023/09/19 12:14:57;;;;;;;2.20;0.60;;;25.10;70.70;;;;;;2589375;52;21485;-69
2023/09/19 12:17:24;;;;;;;2.55;0.70;;;25.10;70.50;;;;;;2343274;53;20949;-69
2023/09/19 12:19:56;;;;;;;2.12;0.62;;;25.10;70.20;;;;;;2589401;52;21004;-68
2023/09/19 12:22:22;;;;;;;3.40;0.62;;;25.10;68.70;;;;;;2589168;52;21481;-70
2023/09/19 12:24:50;;;;;;;2.47;0.60;;;25.20;69.70;;;;;;2588855;52;20984;-70
2023/09/19 12:27:17;;;;;;;1.60;0.70;;;25.20;69.60;;;;;;2589106;52;20956;-70
2023/09/19 12:29:49;;;;;;;1.80;0.60;;;25.20;69.70;;;;;;2342856;53;21402;-69
2023/09/19 12:32:20;;;;;;;3.22;1.17;;;25.20;68.60;;;;;;2590376;52;20957;-71
2023/09/19 12:34:54;;;;;;;1.55;0.65;;;25.20;69.30;;;;;;2616857;52;20997;-68
2023/09/19 12:37:22;;;;;;;1.90;0.70;;;25.20;67.90;;;;;;2577499;52;21023;-69
2023/09/19 12:39:51;;;;;;;1.45;0.60;;;25.30;69.20;;;;;;2596030;52;20929;-69
2023/09/19 12:42:20;;;;;;;1.67;0.50;;;25.30;69.00;;;;;;2588979;52;21027;-70
2023/09/19 12:44:48;;;;;;;1.55;0.60;;;25.30;68.90;;;;;;2589275;52;20949;-69
2023/09/19 12:47:17;;;;;;;1.80;0.65;;;25.40;69.00;;;;;;2604605;52;21499;-70
2023/09/19 12:50:16;;;;;;;1.75;0.70;;;25.40;68.70;;;;;;2345455;53;21750;-71
2023/09/19 12:52:48;;;;;;;2.00;0.62;;;25.40;66.00;;;;;;2342818;54;20933;-70
2023/09/19 12:55:33;;;;;;;1.58;0.60;;;25.50;68.30;;;;;;2343084;54;20932;-69
2023/09/19 12:58:20;;;;;;;3.37;0.75;;;25.50;66.90;;;;;;2588514;52;20921;-70
2023/09/19 13:00:47;;;;;;;2.03;0.80;;;25.50;65.90;;;;;;2348232;53;21071;-69
2023/09/19 13:03:28;;;;;;;1.87;0.70;;;25.50;68.30;;;;;;2356486;53;21018;-70
2023/09/19 13:06:04;;;;;;;1.70;0.60;;;25.60;66.10;;;;;;2617610;52;20993;-70
2023/09/19 13:08:37;;;;;;;1.20;0.50;;;25.60;66.90;;;;;;2365984;53;21026;-70
2023/09/19 13:11:09;;;;;;;1.20;0.52;;;25.60;68.20;;;;;;2362976;53;21462;-69
2023/09/19 13:13:37;;;;;;;6.47;0.50;;;25.70;68.20;;;;;;2348492;53;20980;-69
2023/09/19 13:16:08;;;;;;;1.12;0.40;;;25.70;67.90;;;;;;2590579;52;20973;-68
2023/09/19 13:18:59;;;;;;;0.80;0.40;;;25.70;67.90;;;;;;2589896;52;21737;-70
2023/09/19 13:21:45;;;;;;;1.02;0.40;;;25.80;65.60;;;;;;2343085;53;20937;-70
2023/09/19 13:24:27;;;;;;;2.00;0.60;;;25.80;66.40;;;;;;2588900;52;20944;-68
2023/09/19 13:26:54;;;;;;;1.40;0.50;;;25.80;65.90;;;;;;2588953;52;21934;-69
2023/09/19 13:29:20;;;;;;;1.42;0.60;;;25.80;68.30;;;;;;2589635;52;20929;-69
2023/09/19 13:31:50;;;;;;;1.50;0.60;;;25.90;67.70;;;;;;2342905;53;20916;-68